createdAt,value
2022-07-29T00:01:19.529Z,95110.94
2022-07-29T00:04:03.132Z,95106.19
2022-07-29T00:06:46.378Z,95111.72
2022-07-29T00:09:30.909Z,95110.41
2022-07-29T00:12:14.027Z,95115.16
2022-07-29T00:14:58.011Z,95118.81
2022-07-29T00:17:41.181Z,95118.53
2022-07-29T00:20:24.514Z,95122.25
2022-07-29T00:23:07.779Z,95128.03
2022-07-29T00:25:58.176Z,95125.41
2022-07-29T00:28:41.215Z,95127.75
2022-07-29T00:31:24.359Z,95134.59
2022-07-29T00:34:27.424Z,95129.84
2022-07-29T00:37:09.486Z,95126.72
2022-07-29T00:39:52.612Z,95112.25
2022-07-29T00:42:45.561Z,95109.88
2022-07-29T00:45:28.672Z,95109.88
2022-07-29T00:48:11.908Z,95124.59
2022-07-29T00:50:55.073Z,95120.94
2022-07-29T00:53:38.457Z,95125.91
2022-07-29T00:56:21.968Z,95127.75
2022-07-29T00:59:06.515Z,95126.19
2022-07-29T01:01:49.651Z,95120.13
2022-07-29T01:04:33.732Z,95123.56
2022-07-29T01:07:18.040Z,95112.00
2022-07-29T01:10:02.249Z,95111.47
2022-07-29T01:12:48.138Z,95109.88
2022-07-29T01:15:33.247Z,95099.38
2022-07-29T01:18:23.488Z,95108.31
2022-07-29T01:21:38.324Z,95109.59
2022-07-29T01:24:42.037Z,95117.22
2022-07-29T01:27:41.137Z,95104.59
2022-07-29T01:30:28.091Z,95121.41
2022-07-29T01:33:35.852Z,95120.88
2022-07-29T01:36:29.615Z,95115.88
2022-07-29T01:39:14.701Z,95112.47
2022-07-29T01:42:03.755Z,95106.41
2022-07-29T01:44:56.118Z,95104.03
2022-07-29T01:47:46.320Z,95100.88
2022-07-29T01:50:36.891Z,95097.25
2022-07-29T01:53:38.005Z,95087.75
2022-07-29T01:56:22.293Z,95090.91
2022-07-29T01:59:08.890Z,95095.88
2022-07-29T02:01:56.360Z,95099.28
2022-07-29T02:04:42.433Z,95086.16
2022-07-29T02:07:29.527Z,95083.53
2022-07-29T02:10:14.976Z,95088.50
2022-07-29T02:13:00.490Z,95089.03
2022-07-29T02:15:45.093Z,95073.28
2022-07-29T02:18:31.826Z,95078.81
2022-07-29T02:21:21.919Z,95075.41
2022-07-29T02:24:07.031Z,95080.41
2022-07-29T02:26:51.643Z,95087.75
2022-07-29T02:29:36.839Z,95082.78
2022-07-29T02:32:21.359Z,95084.91
2022-07-29T02:35:05.355Z,95079.38
2022-07-29T02:38:11.233Z,95084.13
2022-07-29T02:40:55.825Z,95082.03
2022-07-29T02:43:39.303Z,95079.38
2022-07-29T02:46:29.846Z,95072.81
2022-07-29T02:49:17.899Z,95072.28
2022-07-29T02:52:04.359Z,95067.31
2022-07-29T02:54:56.143Z,95070.69
2022-07-29T02:57:54.399Z,95069.91
2022-07-29T03:00:40.546Z,95067.81
2022-07-29T03:03:24.950Z,95071.50
2022-07-29T03:06:10.876Z,95078.63
2022-07-29T03:09:15.543Z,95074.09
2022-07-29T03:12:00.259Z,95068.34
2022-07-29T03:14:44.801Z,95063.88
2022-07-29T03:17:28.216Z,95069.91
2022-07-29T03:20:13.752Z,95068.59
2022-07-29T03:22:56.947Z,95078.28
2022-07-29T03:25:40.174Z,95074.88
2022-07-29T03:28:26.926Z,95070.16
2022-07-29T03:31:10.346Z,95070.94
2022-07-29T03:33:53.486Z,95070.41
2022-07-29T03:36:36.604Z,95069.34
2022-07-29T03:39:25.131Z,95071.19
2022-07-29T03:42:10.516Z,95074.06
2022-07-29T03:44:56.591Z,95078.25
2022-07-29T03:47:50.809Z,95080.38
2022-07-29T03:50:36.798Z,95079.03
2022-07-29T03:53:20.355Z,95079.84
2022-07-29T03:56:05.393Z,95088.28
2022-07-29T03:58:48.795Z,95096.13
2022-07-29T04:01:37.656Z,95089.03
2022-07-29T04:04:20.923Z,95089.03
2022-07-29T04:07:04.839Z,95082.19
2022-07-29T04:09:47.959Z,95087.22
2022-07-29T04:12:31.173Z,95080.91
2022-07-29T04:15:14.386Z,95090.66
2022-07-29T04:17:58.913Z,95086.16
2022-07-29T04:20:42.026Z,95086.72
2022-07-29T04:23:25.190Z,95088.25
2022-07-29T04:26:10.721Z,95080.91
2022-07-29T04:28:53.953Z,95090.66
2022-07-29T04:31:37.032Z,95091.97
2022-07-29T04:34:21.615Z,95084.59
2022-07-29T04:37:04.741Z,95085.69
2022-07-29T04:39:48.099Z,95080.41
2022-07-29T04:42:31.277Z,95086.75
2022-07-29T04:45:14.430Z,95098.56
2022-07-29T04:47:58.108Z,95097.00
2022-07-29T04:50:43.145Z,95092.53
2022-07-29T04:53:26.626Z,95099.91
2022-07-29T04:56:09.738Z,95095.13
2022-07-29T04:58:52.824Z,95100.41
2022-07-29T05:01:36.017Z,95097.72
2022-07-29T05:04:19.910Z,95102.44
2022-07-29T05:07:04.912Z,95105.34
2022-07-29T05:09:48.027Z,95114.53
2022-07-29T05:12:31.118Z,95105.53
2022-07-29T05:15:14.242Z,95108.72
2022-07-29T05:17:57.810Z,95115.50
2022-07-29T05:20:40.875Z,95113.88
2022-07-29T05:23:25.293Z,95114.34
2022-07-29T05:26:08.390Z,95107.97
2022-07-29T05:28:51.693Z,95111.84
2022-07-29T05:31:34.803Z,95113.66
2022-07-29T05:34:18.456Z,95115.94
2022-07-29T05:37:01.963Z,95115.06
2022-07-29T05:39:48.716Z,95119.22
2022-07-29T05:42:34.015Z,95114.16
2022-07-29T05:45:17.077Z,95122.41
2022-07-29T05:48:00.215Z,95114.13
2022-07-29T05:50:44.105Z,95114.94
2022-07-29T05:53:27.534Z,95121.19
2022-07-29T05:56:12.066Z,95116.59
2022-07-29T05:58:55.206Z,95113.47
2022-07-29T06:01:40.466Z,95118.31
2022-07-29T06:04:23.802Z,95112.75
2022-07-29T06:07:07.279Z,95117.13
2022-07-29T06:09:50.452Z,95116.97
2022-07-29T06:12:34.987Z,95120.50
2022-07-29T06:15:18.468Z,95125.91
2022-07-29T06:18:02.444Z,95124.75
2022-07-29T06:20:45.629Z,95121.00
2022-07-29T06:23:28.794Z,95125.06
2022-07-29T06:26:11.814Z,95119.44
2022-07-29T06:28:56.328Z,95123.69
2022-07-29T06:31:40.337Z,95123.91
2022-07-29T06:34:23.365Z,95121.84
2022-07-29T06:37:09.138Z,95122.38
2022-07-29T06:40:12.879Z,95117.53
2022-07-29T06:42:56.233Z,95101.28
2022-07-29T06:45:42.428Z,95112.16
2022-07-29T06:48:26.003Z,95120.34
2022-07-29T06:51:09.110Z,95116.81
2022-07-29T06:54:00.094Z,95114.97
2022-07-29T06:56:46.942Z,95103.28
2022-07-29T06:59:35.450Z,95111.34
2022-07-29T07:02:20.509Z,95112.66
2022-07-29T07:05:03.675Z,95109.59
2022-07-29T07:07:46.774Z,95105.81
2022-07-29T07:10:30.355Z,95103.97
2022-07-29T07:13:13.628Z,95106.47
2022-07-29T07:15:56.851Z,95104.72
2022-07-29T07:18:41.621Z,95101.69
2022-07-29T07:21:24.932Z,95103.16
2022-07-29T07:24:08.752Z,95107.19
2022-07-29T07:26:52.225Z,95106.94
2022-07-29T07:29:35.344Z,95098.69
2022-07-29T07:32:18.519Z,95107.91
2022-07-29T07:35:03.529Z,95092.75
2022-07-29T07:37:46.682Z,95092.75
2022-07-29T07:40:29.787Z,95098.81
2022-07-29T07:43:12.882Z,95088.91
2022-07-29T07:45:56.228Z,95087.84
2022-07-29T07:48:39.507Z,95092.41
2022-07-29T07:51:24.115Z,95094.34
2022-07-29T07:54:07.310Z,95080.81
2022-07-29T07:56:52.979Z,95084.59
2022-07-29T07:59:36.543Z,95093.00
2022-07-29T08:02:19.795Z,95094.16
2022-07-29T08:05:03.040Z,95093.50
2022-07-29T08:07:48.785Z,95087.75
2022-07-29T08:10:49.487Z,95088.88
2022-07-29T08:13:32.991Z,95091.00
2022-07-29T08:16:17.055Z,95086.25
2022-07-29T08:19:00.454Z,95052.06
2022-07-29T08:21:43.828Z,95083.00
2022-07-29T08:24:53.285Z,95081.59
2022-07-29T08:27:44.058Z,95071.72
2022-07-29T08:30:27.461Z,95068.03
2022-07-29T08:33:11.141Z,95073.78
2022-07-29T08:35:54.245Z,95067.63
2022-07-29T08:38:37.394Z,95077.00
2022-07-29T08:41:22.261Z,95076.88
2022-07-29T08:44:06.088Z,95068.41
2022-07-29T08:46:50.493Z,95069.94
2022-07-29T08:49:36.362Z,95070.22
2022-07-29T08:52:20.332Z,95056.22
2022-07-29T08:55:03.967Z,95068.53
2022-07-29T08:57:54.126Z,95063.63
2022-07-29T09:00:39.892Z,95069.91
2022-07-29T09:03:27.533Z,95061.50
2022-07-29T09:06:10.814Z,95065.03
2022-07-29T09:08:54.024Z,95058.41
2022-07-29T09:11:37.516Z,95057.22
2022-07-29T09:14:22.032Z,95062.91
2022-07-29T09:17:05.603Z,95048.16
2022-07-29T09:19:48.918Z,95059.63
2022-07-29T09:22:36.727Z,95058.91
2022-07-29T09:25:35.984Z,95058.50
2022-07-29T09:28:20.116Z,95058.25
2022-07-29T09:31:04.607Z,95056.56
2022-07-29T09:33:47.802Z,95045.94
2022-07-29T09:36:30.995Z,95048.09
2022-07-29T09:39:17.889Z,95044.59
2022-07-29T09:42:07.888Z,95055.28
2022-07-29T09:44:52.138Z,95046.31
2022-07-29T09:47:49.937Z,95041.19
2022-07-29T09:50:41.601Z,95035.75
2022-07-29T09:53:33.963Z,95039.31
2022-07-29T09:56:17.050Z,95034.78
2022-07-29T09:59:07.934Z,95027.50
2022-07-29T10:01:51.666Z,95023.56
2022-07-29T10:04:46.584Z,95019.91
2022-07-29T10:07:48.356Z,95023.03
2022-07-29T10:10:37.010Z,95014.94
2022-07-29T10:13:20.184Z,95006.75
2022-07-29T10:16:03.986Z,95011.00
2022-07-29T10:18:47.955Z,95000.56
2022-07-29T10:21:35.162Z,94999.03
2022-07-29T10:24:20.122Z,95009.38
2022-07-29T10:27:05.395Z,94986.56
2022-07-29T10:29:48.902Z,94990.13
2022-07-29T10:32:48.390Z,94982.00
2022-07-29T10:35:50.385Z,94988.09
2022-07-29T10:38:45.808Z,94989.59
2022-07-29T10:41:44.741Z,94994.47
2022-07-29T10:44:28.869Z,94985.22
2022-07-29T10:47:22.846Z,94979.44
2022-07-29T10:50:09.481Z,94977.50
2022-07-29T10:52:58.035Z,94980.00
2022-07-29T10:55:45.475Z,94970.66
2022-07-29T10:58:30.936Z,94954.47
2022-07-29T11:01:37.002Z,94967.88
2022-07-29T11:04:55.028Z,94959.41
2022-07-29T11:07:42.666Z,94964.41
2022-07-29T11:10:31.380Z,94952.00
2022-07-29T11:13:49.342Z,94964.25
2022-07-29T11:17:08.179Z,94961.72
2022-07-29T11:19:52.774Z,94949.69
2022-07-29T11:22:43.068Z,94952.75
2022-07-29T11:25:42.402Z,94947.56
2022-07-29T11:28:28.486Z,94949.91
2022-07-29T11:31:13.357Z,94946.09
2022-07-29T11:33:57.049Z,94937.88
2022-07-29T11:37:33.562Z,94935.22
2022-07-29T11:40:25.743Z,94926.44
2022-07-29T11:43:08.968Z,94933.66
2022-07-29T11:45:53.591Z,94935.19
2022-07-29T11:48:37.842Z,94936.47
2022-07-29T11:51:21.403Z,94929.78
2022-07-29T11:57:35.976Z,94923.81
2022-07-29T12:00:33.222Z,94930.66
2022-07-29T12:03:33.581Z,94922.63
2022-07-29T12:06:21.977Z,94922.34
2022-07-29T12:07:02.299Z,94931.47
2022-07-29T12:09:14.345Z,94913.66
2022-07-29T12:12:04.918Z,94919.38
2022-07-29T12:14:48.718Z,94927.00
2022-07-29T12:17:33.515Z,94927.44
2022-07-29T12:20:26.930Z,94926.94
2022-07-29T12:23:12.901Z,94926.75
2022-07-29T12:25:56.630Z,94918.00
2022-07-29T12:28:40.410Z,94917.75
2022-07-29T12:31:42.303Z,94913.16
2022-07-29T12:34:30.727Z,94917.34
2022-07-29T12:37:15.568Z,94910.75
2022-07-29T12:39:59.662Z,94904.97
2022-07-29T12:42:43.108Z,94909.53
2022-07-29T12:45:31.868Z,94906.50
2022-07-29T12:48:15.689Z,94905.81
2022-07-29T12:51:00.962Z,94904.44
2022-07-29T12:54:05.470Z,94894.50
2022-07-29T12:56:48.739Z,94892.00
2022-07-29T12:59:31.932Z,94891.66
2022-07-29T13:02:23.681Z,94882.56
2022-07-29T13:05:09.335Z,94893.22
2022-07-29T13:07:55.166Z,94889.41
2022-07-29T13:10:42.691Z,94882.50
2022-07-29T13:13:25.791Z,94889.22
2022-07-29T13:16:10.272Z,94875.47
2022-07-29T13:19:06.444Z,94876.84
2022-07-29T13:21:49.638Z,94872.44
2022-07-29T13:24:32.766Z,94869.06
2022-07-29T13:27:18.263Z,94868.84
2022-07-29T13:30:03.340Z,94876.03
2022-07-29T13:32:47.113Z,94875.16
2022-07-29T13:35:30.778Z,94865.81
2022-07-29T13:38:13.811Z,94868.94
2022-07-29T13:40:56.971Z,94867.38
2022-07-29T13:43:41.497Z,94863.63
2022-07-29T13:46:24.681Z,94857.31
2022-07-29T13:49:07.916Z,94852.53
2022-07-29T13:51:51.788Z,94850.72
2022-07-29T13:54:42.170Z,94860.91
2022-07-29T13:57:26.299Z,94849.06
2022-07-29T14:00:12.251Z,94855.88
2022-07-29T14:02:55.411Z,94856.59
2022-07-29T14:05:38.489Z,94859.38
2022-07-29T14:08:21.654Z,94860.03
2022-07-29T14:11:04.820Z,94855.47
2022-07-29T14:13:50.319Z,94861.69
2022-07-29T14:16:38.037Z,94856.00
2022-07-29T14:19:23.683Z,94858.69
2022-07-29T14:22:08.623Z,94847.97
2022-07-29T14:24:52.046Z,94858.59
2022-07-29T14:27:38.257Z,94852.47
2022-07-29T14:30:22.338Z,94864.03
2022-07-29T14:33:06.994Z,94852.47
2022-07-29T14:35:50.153Z,94853.81
2022-07-29T14:38:33.318Z,94835.78
2022-07-29T14:41:16.433Z,94843.88
2022-07-29T14:44:01.595Z,94848.56
2022-07-29T14:46:44.777Z,94849.25
2022-07-29T14:49:33.184Z,94840.59
2022-07-29T14:52:16.339Z,94853.06
2022-07-29T14:54:59.573Z,94845.25
2022-07-29T14:57:42.695Z,94853.06
2022-07-29T15:00:25.899Z,94856.84
2022-07-29T15:03:11.336Z,94844.03
2022-07-29T15:05:56.195Z,94850.41
2022-07-29T15:08:39.294Z,94850.13
2022-07-29T15:11:22.823Z,94851.81
2022-07-29T15:14:06.012Z,94840.78
2022-07-29T15:16:49.235Z,94833.78
2022-07-29T15:19:36.391Z,94826.97
2022-07-29T15:22:20.929Z,94833.78
2022-07-29T15:25:04.066Z,94832.22
2022-07-29T15:27:52.086Z,94832.22
2022-07-29T15:30:41.801Z,94824.41
2022-07-29T15:33:25.031Z,94833.44
2022-07-29T15:36:08.511Z,94831.09
2022-07-29T15:38:54.602Z,94840.25
2022-07-29T15:41:37.750Z,94830.91
2022-07-29T15:44:21.801Z,94827.38
2022-07-29T15:47:05.748Z,94830.16
2022-07-29T15:49:50.030Z,94831.75
2022-07-29T15:52:33.130Z,94838.97
2022-07-29T15:55:17.684Z,94834.97
2022-07-29T15:58:00.983Z,94834.28
2022-07-29T16:00:44.208Z,94829.59
2022-07-29T16:03:27.464Z,94838.31
2022-07-29T16:06:10.811Z,94833.63
2022-07-29T16:08:55.860Z,94830.75
2022-07-29T16:11:40.413Z,94830.31
2022-07-29T16:14:23.614Z,94831.22
2022-07-29T16:17:14.455Z,94832.31
2022-07-29T16:19:58.235Z,94827.31
2022-07-29T16:22:41.302Z,94841.66
2022-07-29T16:25:43.830Z,94841.44
2022-07-29T16:28:29.416Z,94841.44
2022-07-29T16:31:13.829Z,94840.75
2022-07-29T16:33:57.336Z,94849.56
2022-07-29T16:36:42.683Z,94861.56
2022-07-29T16:39:29.230Z,94864.31
2022-07-29T16:42:25.788Z,94859.50
2022-07-29T16:45:18.032Z,94862.16
2022-07-29T16:48:05.185Z,94853.81
2022-07-29T16:50:49.424Z,94861.34
2022-07-29T16:53:32.592Z,94859.06
2022-07-29T16:56:15.730Z,94854.16
2022-07-29T16:58:59.602Z,94863.06
2022-07-29T17:01:44.121Z,94850.53
2022-07-29T17:04:27.576Z,94847.25
2022-07-29T17:07:10.762Z,94847.47
2022-07-29T17:09:55.937Z,94847.66
2022-07-29T17:12:41.625Z,94850.50
2022-07-29T17:15:25.324Z,94857.78
2022-07-29T17:18:12.303Z,94858.16
2022-07-29T17:20:56.203Z,94858.06
2022-07-29T17:23:39.359Z,94862.94
2022-07-29T17:26:22.923Z,94855.94
2022-07-29T17:29:06.190Z,94859.06
2022-07-29T17:31:49.379Z,94861.91
2022-07-29T17:34:34.044Z,94865.53
2022-07-29T17:37:17.324Z,94864.81
2022-07-29T17:40:00.734Z,94863.44
2022-07-29T17:42:43.919Z,94867.34
2022-07-29T17:45:27.116Z,94868.75
2022-07-29T17:48:30.294Z,94870.69
2022-07-29T17:51:15.356Z,94875.84
2022-07-29T17:53:58.552Z,94869.97
2022-07-29T17:56:41.664Z,94873.09
2022-07-29T17:59:24.799Z,94878.78
2022-07-29T18:02:08.206Z,94877.69
2022-07-29T18:04:51.317Z,94885.41
2022-07-29T18:07:35.858Z,94883.69
2022-07-29T18:10:18.912Z,94889.47
2022-07-29T18:13:02.900Z,94880.53
2022-07-29T18:15:47.256Z,94893.09
2022-07-29T18:18:30.535Z,94891.69
2022-07-29T18:21:14.053Z,94894.06
2022-07-29T18:23:58.560Z,94896.72
2022-07-29T18:26:41.795Z,94904.22
2022-07-29T18:29:25.045Z,94903.28
2022-07-29T18:32:08.654Z,94908.13
2022-07-29T18:34:51.752Z,94908.91
2022-07-29T18:38:01.579Z,94912.06
2022-07-29T18:40:42.131Z,94914.84
2022-07-29T18:43:25.237Z,94906.56
2022-07-29T18:46:08.476Z,94903.28
2022-07-29T18:48:51.877Z,94906.56
2022-07-29T18:51:35.091Z,94912.81
2022-07-29T18:54:18.569Z,94915.03
2022-07-29T18:57:54.707Z,94919.88
2022-07-29T19:00:07.887Z,94922.34
2022-07-29T19:02:51.569Z,94915.16
2022-07-29T19:05:34.965Z,94920.34
2022-07-29T19:08:18.097Z,94924.25
2022-07-29T19:11:01.254Z,94925.81
2022-07-29T19:13:45.892Z,94933.63
2022-07-29T19:16:29.133Z,94921.75
2022-07-29T19:19:12.644Z,94924.41
2022-07-29T19:21:56.008Z,94924.56
2022-07-29T19:24:39.169Z,94940.50
2022-07-29T19:27:22.283Z,94951.16
2022-07-29T19:30:09.547Z,94953.94
2022-07-29T19:32:52.630Z,94949.25
2022-07-29T19:35:35.946Z,94957.38
2022-07-29T19:38:19.102Z,94949.72
2022-07-29T19:41:02.163Z,94948.16
2022-07-29T19:43:50.378Z,94952.50
2022-07-29T19:46:36.843Z,94948.91
2022-07-29T19:49:20.024Z,94951.50
2022-07-29T19:52:03.142Z,94962.59
2022-07-29T19:54:46.357Z,94949.75
2022-07-29T19:57:29.795Z,94954.63
2022-07-29T20:00:25.239Z,94951.31
2022-07-29T20:03:10.241Z,94957.22
2022-07-29T20:05:53.464Z,94951.28
2022-07-29T20:08:36.895Z,94962.19
2022-07-29T20:11:20.005Z,94948.44
2022-07-29T20:14:05.329Z,94947.97
2022-07-29T20:16:48.426Z,94959.81
2022-07-29T20:19:33.461Z,94951.31
2022-07-29T20:22:21.114Z,94955.66
2022-07-29T20:25:05.122Z,94943.56
2022-07-29T20:27:52.439Z,94952.28
2022-07-29T20:30:35.578Z,94958.75
2022-07-29T20:33:21.702Z,94967.94
2022-07-29T20:36:07.023Z,94951.53
2022-07-29T20:38:50.094Z,94967.88
2022-07-29T20:41:34.017Z,94958.31
2022-07-29T20:44:18.891Z,94973.25
2022-07-29T20:47:03.238Z,94965.91
2022-07-29T20:49:46.482Z,94963.88
2022-07-29T20:52:31.584Z,94976.84
2022-07-29T20:55:14.789Z,94980.19
2022-07-29T20:57:57.858Z,94975.69
2022-07-29T21:00:41.022Z,94975.25
2022-07-29T21:03:24.054Z,94981.63
2022-07-29T21:06:09.133Z,94978.22
2022-07-29T21:08:55.800Z,94975.09
2022-07-29T21:11:44.417Z,94977.06
2022-07-29T21:14:47.575Z,94976.69
2022-07-29T21:17:34.660Z,94974.66
2022-07-29T21:20:19.532Z,94980.03
2022-07-29T21:23:02.651Z,94970.88
2022-07-29T21:25:47.170Z,94976.25
2022-07-29T21:28:35.704Z,94976.78
2022-07-29T21:31:18.731Z,94976.09
2022-07-29T21:34:01.823Z,94973.13
2022-07-29T21:36:48.903Z,94974.00
2022-07-29T21:39:32.441Z,94983.63
2022-07-29T21:42:16.944Z,94976.94
2022-07-29T21:45:00.562Z,94990.84
2022-07-29T21:47:43.590Z,94987.22
2022-07-29T21:50:26.723Z,94997.31
2022-07-29T21:53:11.112Z,94985.94
2022-07-29T21:55:56.967Z,94978.28
2022-07-29T21:58:41.735Z,94971.59
2022-07-29T22:01:25.908Z,94973.66
2022-07-29T22:04:09.466Z,94981.50
2022-07-29T22:06:52.595Z,94975.81
2022-07-29T22:09:35.773Z,94977.00
2022-07-29T22:12:18.859Z,94977.06
2022-07-29T22:15:03.498Z,94974.97
2022-07-29T22:17:47.174Z,94972.91
2022-07-29T22:20:30.367Z,94983.06
2022-07-29T22:23:13.448Z,94969.38
2022-07-29T22:25:56.487Z,94980.53
2022-07-29T22:28:39.563Z,94979.53
2022-07-29T22:31:25.072Z,94988.53
2022-07-29T22:34:12.722Z,94997.56
2022-07-29T22:36:55.792Z,94995.06
2022-07-29T22:39:39.069Z,94982.63
2022-07-29T22:42:22.263Z,94983.41
2022-07-29T22:45:05.953Z,94993.19
2022-07-29T22:47:57.474Z,94980.25
2022-07-29T22:50:42.840Z,94986.63
2022-07-29T22:53:25.895Z,94988.19
2022-07-29T22:56:09.612Z,94981.94
2022-07-29T22:58:53.391Z,94980.16
2022-07-29T23:01:37.800Z,94985.47
2022-07-29T23:04:23.823Z,94985.56
2022-07-29T23:07:07.096Z,94987.00
2022-07-29T23:09:50.204Z,94987.28
2022-07-29T23:12:33.306Z,94985.72
2022-07-29T23:15:16.358Z,94985.66
2022-07-29T23:18:01.362Z,94981.94
2022-07-29T23:20:46.336Z,94982.00
2022-07-29T23:23:32.402Z,94978.78
2022-07-29T23:26:17.053Z,94972.31
2022-07-29T23:29:00.199Z,94979.16
2022-07-29T23:31:48.146Z,94986.88
2022-07-29T23:34:31.499Z,94982.75
2022-07-29T23:37:16.038Z,94978.31
2022-07-29T23:39:59.113Z,94983.19
2022-07-29T23:42:43.006Z,94983.91
2022-07-29T23:45:33.044Z,94985.78
2022-07-29T23:48:28.348Z,94985.97
2022-07-29T23:51:11.495Z,94993.97
2022-07-29T23:53:56.093Z,94990.28
2022-07-29T23:56:39.171Z,94981.75
2022-07-29T23:59:22.297Z,94979.31
